New Bedford, MA (02740)

8:13 AM EDT on September 29, 2016 (GMT -0400)
Buttonwoood Park Area | | Change Station

Elev 92 ft 41.63 °N, 70.95 °W | Updated 3 seconds ago

Overcast
Overcast
57.4 °F
Feels Like 57.4 °F
N
5.4
Wind Variable Wind from NE
Gusts 6.7 mph

Today
High -- | Low -- °F
--% Chance of Precip.
Yesterday
High -- | Low -- °F
Precip. -- in
Pressure 30.38 in
Visibility 10.0 miles
Clouds Overcast 1600 ft
Dew Point 53 °F
Humidity 84%
Rainfall 0.00 in
Snow Depth Not available.
6:38 AM 6:28 PM
Waning Crescent, 2% visible
METAR KEWB 291153Z 03008G16KT 10SM OVC016 14/11 A3038 RMK AO2 SLP288 60000 T01440106 10150 20144 53014
Pressure 30.38 in
Visibility 10.0 miles
Clouds Overcast 1600 ft
Dew Point 53 °F
Humidity 84%
Rainfall 0.00 in
Snow Depth Not available.
6:38 AM 6:28 PM
Waning Crescent, 2% visible
METAR KEWB 291153Z 03008G16KT 10SM OVC016 14/11 A3038 RMK AO2 SLP288 60000 T01440106 10150 20144 53014

10-Day Weather Forecast

Almanac

Astronomy

Sep. 29, 2016 Rise Set
Actual Time
Civil Twilight
Nautical Twilight
Astronomical Twilight
Moon
Length of Visible Light
Length of Day
Tomorrow will be .
, % of the Moon is Illuminated

Today's Extremes

State Highs State Lows

Community

WunderPhotos

Upload Photos

1,942,466 photos uploaded!

WunderBlog® & News

Nearby

Air Quality

  Air Quality AQ Index Pollutant
Not available.

Snow Depth

Station Depth Elevation

Earthquake Activity

City Distance Mag. Time & Date
Minimum magnitude displayed is 2.5.

Coastal Water Temperatures

Place Temperature

Stations

Nearby Weather Stations

Station Location Temp. Windchill Dew Point Humidity Wind Precip. Elev Updated Type
                   

Watches & Warnings

There are currently no watches in effect.